createdAt,value
2022-12-09T00:01:22.062Z,9.02
2022-12-09T00:03:56.168Z,10.27
2022-12-09T00:06:47.208Z,10.13
2022-12-09T00:09:19.824Z,10.50
2022-12-09T00:11:52.832Z,10.38
2022-12-09T00:14:26.146Z,9.95
2022-12-09T00:16:58.793Z,10.38
2022-12-09T00:19:30.944Z,11.77
2022-12-09T00:22:03.973Z,10.10
2022-12-09T00:27:29.698Z,9.98
2022-12-09T00:30:06.109Z,9.65
2022-12-09T00:32:38.707Z,10.77
2022-12-09T00:35:11.647Z,11.05
2022-12-09T00:37:43.783Z,10.07
2022-12-09T00:40:17.071Z,9.52
2022-12-09T00:42:50.569Z,10.52
2022-12-09T00:45:23.646Z,9.77
2022-12-09T00:47:56.056Z,10.23
2022-12-09T00:50:28.352Z,10.73
2022-12-09T00:53:00.756Z,9.90
2022-12-09T00:55:33.271Z,9.25
2022-12-09T00:58:06.010Z,9.27
2022-12-09T01:00:39.174Z,9.93
2022-12-09T01:03:16.448Z,10.43
2022-12-09T01:05:50.628Z,9.20
2022-12-09T01:08:24.324Z,10.07
2022-12-09T01:10:57.389Z,9.57
2022-12-09T01:13:29.266Z,9.63
2022-12-09T01:16:02.257Z,9.73
2022-12-09T01:18:34.635Z,10.10
2022-12-09T01:21:06.645Z,10.25
2022-12-09T01:23:39.829Z,9.57
2022-12-09T01:26:12.099Z,10.50
2022-12-09T01:28:45.021Z,9.82
2022-12-09T01:31:20.431Z,12.57
2022-12-09T01:33:55.978Z,11.75
2022-12-09T01:36:30.523Z,12.23
2022-12-09T01:39:03.548Z,12.27
2022-12-09T01:41:36.030Z,12.27
2022-12-09T01:44:25.414Z,12.10
2022-12-09T01:47:02.419Z,13.30
2022-12-09T01:49:48.901Z,12.80
2022-12-09T01:52:23.221Z,9.98
2022-12-09T01:54:57.239Z,10.68
2022-12-09T01:57:29.223Z,9.23
2022-12-09T02:00:02.739Z,10.25
2022-12-09T02:02:38.516Z,8.80
2022-12-09T02:05:12.235Z,9.57
2022-12-09T02:07:47.120Z,9.73
2022-12-09T02:10:22.548Z,9.15
2022-12-09T02:13:28.001Z,8.57
2022-12-09T02:16:05.581Z,10.90
2022-12-09T02:18:50.754Z,12.70
2022-12-09T02:21:38.901Z,13.70
2022-12-09T02:24:41.960Z,15.55
2022-12-09T02:27:43.357Z,13.80
2022-12-09T02:30:25.751Z,13.50
2022-12-09T02:33:41.504Z,13.32
2022-12-09T02:36:20.987Z,15.20
2022-12-09T02:38:54.270Z,14.05
2022-12-09T02:41:29.880Z,13.82
2022-12-09T02:44:15.221Z,13.57
2022-12-09T02:46:48.419Z,14.77
2022-12-09T02:49:23.451Z,14.45
2022-12-09T02:51:57.358Z,16.00
2022-12-09T02:54:32.366Z,15.75
2022-12-09T02:57:13.510Z,16.77
2022-12-09T02:59:46.866Z,15.30
2022-12-09T03:02:30.360Z,15.40
2022-12-09T03:05:36.744Z,15.68
2022-12-09T03:08:46.713Z,15.02
2022-12-09T03:11:23.731Z,15.23
2022-12-09T03:14:26.089Z,14.85
2022-12-09T03:17:20.569Z,14.68
2022-12-09T03:20:05.671Z,16.33
2022-12-09T03:22:42.111Z,17.35
2022-12-09T03:25:22.608Z,16.73
2022-12-09T03:28:02.178Z,16.38
2022-12-09T03:30:38.402Z,18.95
2022-12-09T03:33:13.614Z,15.80
2022-12-09T03:35:56.007Z,17.80
2022-12-09T03:38:33.869Z,16.30
2022-12-09T03:41:33.618Z,17.80
2022-12-09T03:44:16.917Z,17.67
2022-12-09T03:46:49.259Z,16.88
2022-12-09T03:49:22.221Z,17.02
2022-12-09T03:52:01.679Z,18.33
2022-12-09T03:54:46.654Z,17.08
2022-12-09T03:57:20.574Z,18.15
2022-12-09T04:00:03.183Z,17.80
2022-12-09T04:02:45.366Z,18.13
2022-12-09T04:05:18.522Z,17.50
2022-12-09T04:07:51.162Z,15.85
2022-12-09T04:10:23.790Z,17.90
2022-12-09T04:12:56.446Z,16.33
2022-12-09T04:15:29.409Z,17.13
2022-12-09T04:18:01.626Z,17.07
2022-12-09T04:20:34.615Z,16.58
2022-12-09T04:23:07.206Z,17.85
2022-12-09T04:25:39.631Z,17.60
2022-12-09T04:28:11.550Z,17.58
2022-12-09T04:30:48.173Z,16.80
2022-12-09T04:33:20.957Z,17.67
2022-12-09T04:35:52.946Z,17.00
2022-12-09T04:38:25.960Z,16.20
2022-12-09T04:41:04.031Z,17.40
2022-12-09T04:43:37.117Z,17.37
2022-12-09T04:46:13.832Z,17.83
2022-12-09T04:48:47.035Z,17.63
2022-12-09T04:51:18.991Z,16.80
2022-12-09T04:53:51.973Z,18.20
2022-12-09T04:56:23.935Z,15.90
2022-12-09T04:58:56.783Z,16.13
2022-12-09T05:01:31.502Z,16.48
2022-12-09T05:04:05.780Z,16.30
2022-12-09T05:06:38.044Z,16.98
2022-12-09T05:09:13.427Z,16.40
2022-12-09T05:11:45.816Z,17.40
2022-12-09T05:14:19.095Z,16.65
2022-12-09T05:16:51.604Z,16.13
2022-12-09T05:19:24.906Z,17.90
2022-12-09T05:21:56.969Z,17.57
2022-12-09T05:24:30.195Z,17.92
2022-12-09T05:27:02.159Z,16.15
2022-12-09T05:29:35.258Z,17.98
2022-12-09T05:32:08.569Z,17.67
2022-12-09T05:34:41.214Z,17.43
2022-12-09T05:37:16.760Z,17.10
2022-12-09T05:39:48.694Z,18.20
2022-12-09T05:42:21.639Z,17.45
2022-12-09T05:44:55.328Z,17.83
2022-12-09T05:47:29.970Z,16.07
2022-12-09T05:50:08.076Z,16.85
2022-12-09T05:52:40.918Z,16.52
2022-12-09T05:55:14.882Z,16.95
2022-12-09T05:57:47.688Z,16.88
2022-12-09T06:00:22.666Z,17.70
2022-12-09T06:02:55.213Z,17.20
2022-12-09T06:05:28.352Z,17.63
2022-12-09T06:08:05.272Z,17.73
2022-12-09T06:10:41.375Z,16.77
2022-12-09T06:13:15.307Z,16.70
2022-12-09T06:15:47.712Z,17.20
2022-12-09T06:18:20.791Z,17.42
2022-12-09T06:20:52.984Z,17.58
2022-12-09T06:23:26.995Z,17.35
2022-12-09T06:25:59.657Z,16.57
2022-12-09T06:28:33.933Z,15.88
2022-12-09T06:31:06.185Z,18.73
2022-12-09T06:33:57.247Z,18.02
2022-12-09T06:36:32.105Z,18.25
2022-12-09T06:39:10.000Z,17.57
2022-12-09T06:41:43.482Z,18.10
2022-12-09T06:44:23.512Z,17.40
2022-12-09T06:46:56.854Z,18.63
2022-12-09T06:49:30.006Z,17.50
2022-12-09T06:52:02.526Z,17.07
2022-12-09T06:54:35.884Z,21.10
2022-12-09T06:57:08.004Z,17.77
2022-12-09T06:59:44.055Z,17.92
2022-12-09T07:02:17.005Z,17.92
2022-12-09T07:04:55.228Z,18.53
2022-12-09T07:07:28.743Z,17.02
2022-12-09T07:10:07.887Z,17.98
2022-12-09T07:12:41.295Z,18.38
2022-12-09T07:15:14.553Z,17.50
2022-12-09T07:17:50.666Z,18.40
2022-12-09T07:20:23.105Z,17.75
2022-12-09T07:22:56.809Z,18.00
2022-12-09T07:25:29.637Z,18.38
2022-12-09T07:28:02.451Z,19.25
2022-12-09T07:30:37.978Z,19.20
2022-12-09T07:33:10.947Z,17.73
2022-12-09T07:35:44.720Z,20.08
2022-12-09T07:38:18.258Z,18.35
2022-12-09T07:40:50.361Z,18.48
2022-12-09T07:43:23.207Z,18.20
2022-12-09T07:45:55.284Z,19.08
2022-12-09T07:48:28.362Z,19.52
2022-12-09T07:51:04.738Z,18.52
2022-12-09T07:53:41.927Z,18.10
2022-12-09T07:56:16.350Z,17.87
2022-12-09T07:58:54.277Z,16.92
2022-12-09T08:01:30.130Z,18.02
2022-12-09T08:04:06.448Z,17.38
2022-12-09T08:06:40.418Z,17.98
2022-12-09T08:09:14.209Z,18.13
2022-12-09T08:11:47.763Z,17.45
2022-12-09T08:14:20.460Z,19.02
2022-12-09T08:16:54.010Z,16.85
2022-12-09T08:19:26.315Z,17.95
2022-12-09T08:21:59.277Z,18.10
2022-12-09T08:24:31.404Z,18.35
2022-12-09T08:27:04.446Z,17.90
2022-12-09T08:29:37.298Z,18.67
2022-12-09T08:32:09.644Z,17.17
2022-12-09T08:34:41.952Z,16.87
2022-12-09T08:37:15.182Z,15.68
2022-12-09T08:39:47.870Z,16.95
2022-12-09T08:42:20.683Z,17.27
2022-12-09T08:44:58.582Z,17.27
2022-12-09T08:47:37.912Z,17.97
2022-12-09T08:50:11.269Z,20.30
2022-12-09T08:52:43.816Z,18.90
2022-12-09T08:55:15.839Z,17.30
2022-12-09T08:57:48.914Z,19.15
2022-12-09T09:00:21.107Z,18.00
2022-12-09T09:02:54.670Z,18.50
2022-12-09T09:05:27.160Z,19.05
2022-12-09T09:08:00.183Z,18.52
2022-12-09T09:10:32.772Z,18.52
2022-12-09T09:13:05.736Z,17.67
2022-12-09T09:15:40.519Z,17.08
2022-12-09T09:18:14.262Z,18.10
2022-12-09T09:20:49.012Z,17.05
2022-12-09T09:23:21.050Z,17.40
2022-12-09T09:25:54.242Z,17.60
2022-12-09T09:28:30.885Z,16.50
2022-12-09T09:31:07.547Z,17.48
2022-12-09T09:33:40.574Z,17.85
2022-12-09T09:36:21.024Z,16.52
2022-12-09T09:39:16.061Z,17.13
2022-12-09T09:41:54.507Z,18.05
2022-12-09T09:44:42.017Z,17.63
2022-12-09T09:47:27.344Z,17.38
2022-12-09T09:50:12.189Z,18.48
2022-12-09T09:52:44.821Z,17.33
2022-12-09T09:55:19.909Z,16.42
2022-12-09T09:57:55.030Z,16.52
2022-12-09T10:00:35.251Z,14.88
2022-12-09T10:03:20.896Z,15.20
2022-12-09T10:06:13.088Z,16.53
2022-12-09T10:09:04.579Z,15.75
2022-12-09T10:12:18.888Z,16.65
2022-12-09T10:14:52.294Z,16.60
2022-12-09T10:17:51.150Z,16.63
2022-12-09T10:20:28.926Z,15.70
2022-12-09T10:23:15.505Z,16.95
2022-12-09T10:26:00.418Z,17.48
2022-12-09T10:28:38.594Z,17.75
2022-12-09T10:31:12.164Z,17.33
2022-12-09T10:33:44.798Z,17.13
2022-12-09T10:36:30.784Z,16.98
2022-12-09T10:39:21.132Z,17.42
2022-12-09T10:42:16.297Z,16.05
2022-12-09T10:44:49.104Z,17.20
2022-12-09T10:47:29.079Z,16.83
2022-12-09T10:50:04.114Z,15.70
2022-12-09T10:52:45.346Z,16.60
2022-12-09T10:55:37.320Z,16.13
2022-12-09T10:58:18.309Z,16.13
2022-12-09T11:01:08.800Z,17.43
2022-12-09T11:03:49.264Z,17.38
2022-12-09T11:06:30.493Z,17.00
2022-12-09T11:09:04.285Z,16.23
2022-12-09T11:11:49.631Z,16.40
2022-12-09T11:14:31.953Z,15.97
2022-12-09T11:17:24.970Z,16.02
2022-12-09T11:20:07.909Z,16.45
2022-12-09T11:22:44.183Z,15.52
2022-12-09T11:25:27.354Z,17.92
2022-12-09T11:28:33.631Z,15.27
2022-12-09T11:31:29.533Z,15.15
2022-12-09T11:34:26.203Z,15.60
2022-12-09T11:36:59.099Z,15.88
2022-12-09T11:39:35.255Z,15.98
2022-12-09T11:42:20.790Z,16.03
2022-12-09T11:45:06.991Z,16.85
2022-12-09T11:50:42.954Z,16.67
2022-12-09T11:53:33.854Z,17.60
2022-12-09T11:56:20.828Z,15.60
2022-12-09T11:58:58.763Z,17.73
2022-12-09T12:01:37.399Z,16.58
2022-12-09T12:04:16.504Z,15.88
2022-12-09T12:06:57.046Z,16.33
2022-12-09T12:09:40.519Z,17.50
2022-12-09T12:12:33.037Z,17.02
2022-12-09T12:15:25.595Z,16.92
2022-12-09T12:17:57.932Z,17.13
2022-12-09T12:21:11.578Z,16.65
2022-12-09T12:23:56.258Z,16.07
2022-12-09T12:27:01.099Z,14.98
2022-12-09T12:29:57.099Z,16.65
2022-12-09T12:36:15.828Z,16.30
2022-12-09T12:39:14.696Z,16.20
2022-12-09T12:42:06.455Z,16.42
2022-12-09T12:45:26.060Z,17.38
2022-12-09T12:48:15.725Z,16.38
2022-12-09T12:51:21.705Z,16.00
2022-12-09T12:54:21.458Z,16.23
2022-12-09T12:57:30.580Z,17.02
2022-12-09T13:00:13.273Z,16.45
2022-12-09T13:03:12.022Z,17.13
2022-12-09T13:05:48.082Z,17.08
2022-12-09T13:08:28.589Z,16.87
2022-12-09T13:11:11.876Z,16.42
2022-12-09T13:13:55.882Z,16.17
2022-12-09T13:16:33.644Z,15.45
2022-12-09T13:19:22.542Z,15.68
2022-12-09T13:21:55.160Z,15.63
2022-12-09T13:24:40.749Z,16.42
2022-12-09T13:27:40.563Z,18.00
2022-12-09T13:30:20.158Z,16.02
2022-12-09T13:33:11.088Z,16.20
2022-12-09T13:36:06.791Z,16.40
2022-12-09T13:38:42.653Z,16.50
2022-12-09T13:41:56.520Z,17.60
2022-12-09T13:44:36.144Z,17.17
2022-12-09T13:47:36.839Z,19.00
2022-12-09T13:50:36.534Z,16.93
2022-12-09T13:53:21.137Z,17.20
2022-12-09T13:56:17.202Z,19.00
2022-12-09T13:59:39.833Z,18.10
2022-12-09T14:02:20.575Z,18.88
2022-12-09T14:05:15.208Z,18.20
2022-12-09T14:07:57.516Z,19.23
2022-12-09T14:10:43.488Z,18.52
2022-12-09T14:13:26.744Z,19.40
2022-12-09T14:16:28.005Z,19.65
2022-12-09T14:19:26.288Z,19.93
2022-12-09T14:22:22.128Z,20.45
2022-12-09T14:24:57.464Z,21.67
2022-12-09T14:27:32.082Z,22.20
2022-12-09T14:30:24.750Z,20.20
2022-12-09T14:32:57.867Z,20.90
2022-12-09T14:35:43.720Z,20.42
2022-12-09T14:42:13.868Z,19.23
2022-12-09T14:44:59.145Z,20.13
2022-12-09T14:47:39.882Z,19.50
2022-12-09T14:50:23.309Z,19.48
2022-12-09T14:53:01.050Z,21.98
2022-12-09T14:55:39.776Z,19.73
2022-12-09T14:58:21.405Z,21.00
2022-12-09T15:01:06.759Z,20.10
2022-12-09T15:03:45.327Z,20.40
2022-12-09T15:06:20.381Z,22.45
2022-12-09T15:08:56.611Z,21.15
2022-12-09T15:11:34.548Z,21.67
2022-12-09T15:14:27.297Z,21.43
2022-12-09T15:17:00.692Z,20.42
2022-12-09T15:22:33.260Z,21.67
2022-12-09T15:25:05.897Z,23.08
2022-12-09T15:27:38.467Z,22.60
2022-12-09T15:30:28.180Z,22.67
2022-12-09T15:33:00.592Z,22.73
2022-12-09T15:35:34.261Z,21.60
2022-12-09T15:38:09.251Z,22.02
2022-12-09T15:41:03.625Z,20.30
2022-12-09T15:43:37.903Z,22.05
2022-12-09T15:46:12.322Z,21.83
2022-12-09T15:48:50.040Z,38.15
2022-12-09T15:51:26.799Z,20.30
2022-12-09T15:54:05.170Z,21.60
2022-12-09T15:56:57.763Z,19.08
2022-12-09T15:59:33.520Z,17.75
2022-12-09T16:02:08.523Z,18.92
2022-12-09T16:04:47.008Z,19.83
2022-12-09T16:07:22.171Z,18.60
2022-12-09T16:10:10.362Z,18.95
2022-12-09T16:12:44.395Z,20.02
2022-12-09T16:15:50.049Z,19.27
2022-12-09T16:18:49.972Z,18.80
2022-12-09T16:21:28.167Z,19.33
2022-12-09T16:24:12.743Z,19.42
2022-12-09T16:26:48.076Z,19.35
2022-12-09T16:29:31.146Z,20.05
2022-12-09T16:32:34.564Z,22.40
2022-12-09T16:35:25.394Z,22.23
2022-12-09T16:37:57.561Z,21.02
2022-12-09T16:40:53.718Z,21.38
2022-12-09T16:43:28.736Z,20.30
2022-12-09T16:46:27.335Z,20.05
2022-12-09T16:49:04.736Z,21.70
2022-12-09T16:51:39.403Z,22.00
2022-12-09T16:54:20.436Z,21.33
2022-12-09T16:56:56.614Z,20.30
2022-12-09T16:59:37.069Z,20.75
2022-12-09T17:02:31.751Z,21.63
2022-12-09T17:05:06.684Z,23.58
2022-12-09T17:07:39.246Z,22.55
2022-12-09T17:10:15.093Z,24.90
2022-12-09T17:12:47.931Z,23.85
2022-12-09T17:15:21.077Z,23.60
2022-12-09T17:17:53.991Z,23.25
2022-12-09T17:20:26.295Z,24.42
2022-12-09T17:22:59.457Z,23.88
2022-12-09T17:25:33.196Z,23.35
2022-12-09T17:28:07.648Z,22.57
2022-12-09T17:30:40.119Z,24.60
2022-12-09T17:33:12.446Z,23.63
2022-12-09T17:35:45.622Z,23.20
2022-12-09T17:38:17.543Z,22.95
2022-12-09T17:40:50.450Z,22.77
2022-12-09T17:43:22.801Z,23.15
2022-12-09T17:45:58.598Z,23.45
2022-12-09T17:48:34.968Z,23.63
2022-12-09T17:51:10.171Z,23.17
2022-12-09T17:53:42.998Z,22.93
2022-12-09T17:56:22.663Z,22.10
2022-12-09T17:59:08.417Z,24.10
2022-12-09T18:01:41.867Z,23.80
2022-12-09T18:04:15.061Z,24.92
2022-12-09T18:06:50.142Z,24.43
2022-12-09T18:09:23.416Z,23.15
2022-12-09T18:11:55.321Z,24.17
2022-12-09T18:14:28.195Z,24.45
2022-12-09T18:17:01.266Z,25.58
2022-12-09T18:19:35.751Z,24.20
2022-12-09T18:22:07.750Z,25.30
2022-12-09T18:24:40.506Z,24.48
2022-12-09T18:27:12.448Z,24.33
2022-12-09T18:29:45.163Z,23.88
2022-12-09T18:32:17.299Z,22.80
2022-12-09T18:34:50.043Z,24.00
2022-12-09T18:37:21.986Z,24.05
2022-12-09T18:39:54.797Z,23.88
2022-12-09T18:42:26.707Z,24.75
2022-12-09T18:44:59.453Z,23.33
2022-12-09T18:47:31.747Z,23.58
2022-12-09T18:50:03.992Z,24.02
2022-12-09T18:52:38.090Z,25.10
2022-12-09T18:55:10.540Z,27.63
2022-12-09T18:57:43.716Z,26.60
2022-12-09T19:00:15.727Z,29.23
2022-12-09T19:02:48.561Z,28.77
2022-12-09T19:05:20.522Z,26.58
2022-12-09T19:07:53.321Z,24.60
2022-12-09T19:10:25.284Z,26.23
2022-12-09T19:12:57.618Z,26.10
2022-12-09T19:15:29.765Z,26.17
2022-12-09T19:18:02.941Z,26.67
2022-12-09T19:20:34.856Z,26.88
2022-12-09T19:23:09.342Z,33.53
2022-12-09T19:25:45.444Z,31.88
2022-12-09T19:28:18.885Z,25.35
2022-12-09T19:30:50.685Z,23.75
2022-12-09T19:33:23.411Z,25.30
2022-12-09T19:35:56.001Z,24.43
2022-12-09T19:38:28.416Z,23.80
2022-12-09T19:41:01.703Z,24.83
2022-12-09T19:43:35.245Z,23.98
2022-12-09T19:46:10.843Z,25.17
2022-12-09T19:48:44.962Z,22.50
2022-12-09T19:51:18.441Z,23.38
2022-12-09T19:53:56.547Z,23.48
2022-12-09T19:56:29.239Z,24.38
2022-12-09T19:59:01.796Z,22.35
2022-12-09T20:01:38.016Z,22.00
2022-12-09T20:04:46.940Z,22.73
2022-12-09T20:07:10.726Z,23.10
2022-12-09T20:09:42.669Z,21.60
2022-12-09T20:12:15.212Z,23.73
2022-12-09T20:14:47.943Z,20.07
2022-12-09T20:17:20.405Z,20.88
2022-12-09T20:19:52.413Z,21.67
2022-12-09T20:22:24.988Z,21.13
2022-12-09T20:24:56.923Z,20.15
2022-12-09T20:27:29.207Z,21.33
2022-12-09T20:30:01.154Z,22.38
2022-12-09T20:32:33.925Z,20.35
2022-12-09T20:35:09.227Z,20.15
2022-12-09T20:37:42.364Z,21.70
2022-12-09T20:40:14.398Z,21.50
2022-12-09T20:42:47.205Z,21.98
2022-12-09T20:45:19.216Z,22.17
2022-12-09T20:47:53.446Z,21.60
2022-12-09T20:50:25.986Z,20.98
2022-12-09T20:52:58.858Z,22.57
2022-12-09T20:55:31.546Z,22.13
2022-12-09T20:58:04.196Z,22.60
2022-12-09T21:00:36.092Z,22.23
2022-12-09T21:03:08.612Z,21.85
2022-12-09T21:05:41.745Z,24.40
2022-12-09T21:08:16.035Z,25.15
2022-12-09T21:10:48.240Z,25.27
2022-12-09T21:13:20.993Z,25.08
2022-12-09T21:15:54.949Z,25.90
2022-12-09T21:18:27.002Z,25.67
2022-12-09T21:20:59.691Z,26.63
2022-12-09T21:23:34.417Z,26.55
2022-12-09T21:26:11.169Z,24.08
2022-12-09T21:28:47.140Z,25.55
2022-12-09T21:31:24.388Z,24.47
2022-12-09T21:33:58.910Z,24.75
2022-12-09T21:36:36.536Z,24.20
2022-12-09T21:39:11.922Z,22.30
2022-12-09T21:41:44.333Z,23.42
2022-12-09T21:44:20.343Z,22.37
2022-12-09T21:46:52.757Z,23.13
2022-12-09T21:49:33.822Z,22.80
2022-12-09T21:52:06.684Z,24.00
2022-12-09T21:54:39.469Z,23.67
2022-12-09T21:57:11.355Z,24.83
2022-12-09T21:59:44.141Z,24.45
2022-12-09T22:02:16.125Z,23.80
2022-12-09T22:04:48.940Z,24.15
2022-12-09T22:07:20.867Z,22.75
2022-12-09T22:09:53.102Z,23.33
2022-12-09T22:12:25.816Z,23.63
2022-12-09T22:14:57.781Z,23.98
2022-12-09T22:17:32.629Z,24.13
2022-12-09T22:20:49.089Z,23.27
2022-12-09T22:23:00.154Z,22.87
2022-12-09T22:25:32.082Z,24.67
2022-12-09T22:28:04.935Z,24.35
2022-12-09T22:30:37.110Z,25.13
2022-12-09T22:33:09.972Z,25.55
2022-12-09T22:35:42.320Z,25.67
2022-12-09T22:38:14.923Z,24.83
2022-12-09T22:40:47.719Z,24.83
2022-12-09T22:43:19.615Z,27.52
2022-12-09T22:45:52.380Z,25.88
2022-12-09T22:48:24.752Z,25.00
2022-12-09T22:50:57.033Z,25.05
2022-12-09T22:53:28.956Z,25.00
2022-12-09T22:56:01.866Z,23.52
2022-12-09T22:58:34.901Z,26.05
2022-12-09T23:01:14.840Z,24.47
2022-12-09T23:03:47.240Z,24.17
2022-12-09T23:06:20.011Z,25.58
2022-12-09T23:08:52.938Z,24.98
2022-12-09T23:11:28.085Z,24.52
2022-12-09T23:14:01.068Z,24.87
2022-12-09T23:16:33.150Z,25.38
2022-12-09T23:19:05.941Z,25.30
2022-12-09T23:21:40.213Z,25.70
2022-12-09T23:24:22.620Z,24.25
2022-12-09T23:26:57.332Z,24.97
2022-12-09T23:29:29.236Z,24.00
2022-12-09T23:32:01.949Z,24.48
2022-12-09T23:34:33.883Z,22.65
2022-12-09T23:37:06.871Z,23.35
2022-12-09T23:39:40.206Z,25.27
2022-12-09T23:42:12.524Z,22.23
2022-12-09T23:44:44.589Z,26.13
2022-12-09T23:47:17.337Z,25.33
2022-12-09T23:49:49.234Z,25.08
2022-12-09T23:52:23.034Z,26.03
2022-12-09T23:54:58.461Z,26.05
2022-12-09T23:57:33.817Z,26.02
